createdAt,value
2018-06-28T00:02:01.187Z,4.60
2018-06-28T00:04:29.618Z,4.30
2018-06-28T00:06:57.979Z,4.70
2018-06-28T00:09:26.394Z,4.70
2018-06-28T00:11:54.777Z,4.77
2018-06-28T00:14:23.121Z,4.50
2018-06-28T00:16:51.683Z,4.77
2018-06-28T00:19:20.029Z,4.33
2018-06-28T00:21:50.814Z,4.53
2018-06-28T00:24:19.197Z,4.53
2018-06-28T00:26:47.603Z,4.20
2018-06-28T00:29:15.963Z,4.03
2018-06-28T00:31:44.311Z,4.80
2018-06-28T00:34:12.684Z,4.90
2018-06-28T00:36:41.045Z,4.57
2018-06-28T00:39:10.593Z,4.30
2018-06-28T00:41:39.238Z,3.73
2018-06-28T00:44:07.624Z,4.40
2018-06-28T00:46:36.043Z,4.00
2018-06-28T00:49:04.413Z,4.00
2018-06-28T00:51:32.743Z,4.37
2018-06-28T00:54:01.086Z,3.90
2018-06-28T00:56:29.450Z,4.17
2018-06-28T00:58:57.861Z,4.07
2018-06-28T01:01:26.279Z,3.93
2018-06-28T01:03:54.691Z,3.90
2018-06-28T01:06:23.135Z,4.03
2018-06-28T01:08:51.502Z,3.63
2018-06-28T01:11:19.831Z,4.30
2018-06-28T01:13:48.284Z,4.10
2018-06-28T01:16:16.761Z,3.77
2018-06-28T01:18:45.124Z,4.40
2018-06-28T01:21:13.469Z,3.90
2018-06-28T01:23:41.810Z,4.30
2018-06-28T01:26:10.174Z,4.00
2018-06-28T01:28:38.503Z,4.77
2018-06-28T01:31:06.806Z,4.40
2018-06-28T01:33:35.131Z,4.17
2018-06-28T01:36:03.460Z,4.30
2018-06-28T01:38:31.849Z,4.47
2018-06-28T01:41:00.149Z,3.90
2018-06-28T01:43:42.502Z,4.20
2018-06-28T01:46:10.874Z,4.40
2018-06-28T01:48:39.218Z,4.97
2018-06-28T01:51:07.665Z,4.40
2018-06-28T01:53:36.067Z,4.60
2018-06-28T01:56:04.479Z,4.70
2018-06-28T01:58:32.859Z,3.93
2018-06-28T02:01:01.531Z,4.40
2018-06-28T02:03:29.897Z,4.30
2018-06-28T02:05:58.261Z,4.87
2018-06-28T02:08:26.654Z,4.13
2018-06-28T02:10:55.001Z,4.33
2018-06-28T02:13:23.362Z,4.60
2018-06-28T02:15:51.729Z,4.80
2018-06-28T02:18:20.137Z,4.50
2018-06-28T02:20:48.524Z,5.20
2018-06-28T02:23:16.900Z,4.00
2018-06-28T02:25:45.257Z,4.20
2018-06-28T02:28:13.647Z,4.07
2018-06-28T02:30:42.019Z,4.20
2018-06-28T02:33:10.322Z,4.03
2018-06-28T02:35:38.672Z,4.37
2018-06-28T02:38:07.003Z,3.93
2018-06-28T02:40:35.414Z,4.93
2018-06-28T02:43:03.722Z,4.60
2018-06-28T02:45:32.061Z,4.30
2018-06-28T02:48:00.069Z,4.10
2018-06-28T02:50:28.391Z,4.20
2018-06-28T02:52:56.767Z,4.57
2018-06-28T02:55:25.080Z,4.60
2018-06-28T02:57:53.434Z,4.33
2018-06-28T03:00:21.773Z,3.73
2018-06-28T03:02:50.104Z,4.10
2018-06-28T03:05:18.497Z,4.00
2018-06-28T03:07:46.815Z,3.83
2018-06-28T03:10:15.128Z,4.03
2018-06-28T03:12:43.467Z,4.33
2018-06-28T03:15:11.808Z,3.80
2018-06-28T03:17:40.146Z,3.97
2018-06-28T03:20:08.521Z,4.20
2018-06-28T03:22:36.839Z,3.97
2018-06-28T03:25:05.212Z,5.20
2018-06-28T03:27:33.553Z,6.37
2018-06-28T03:30:01.902Z,8.40
2018-06-28T03:32:30.230Z,6.23
2018-06-28T03:34:58.664Z,5.60
2018-06-28T03:37:27.039Z,5.87
2018-06-28T03:39:55.353Z,5.50
2018-06-28T03:42:23.653Z,4.57
2018-06-28T03:44:51.998Z,5.13
2018-06-28T03:47:20.314Z,4.70
2018-06-28T03:49:48.684Z,5.43
2018-06-28T03:52:16.977Z,4.97
2018-06-28T03:54:45.373Z,5.23
2018-06-28T03:57:13.742Z,5.20
2018-06-28T03:59:42.100Z,5.07
2018-06-28T04:02:10.464Z,6.37
2018-06-28T04:04:38.860Z,4.23
2018-06-28T04:07:07.215Z,4.43
2018-06-28T04:09:35.546Z,4.90
2018-06-28T04:12:03.952Z,4.83
2018-06-28T04:14:32.296Z,5.00
2018-06-28T04:17:00.619Z,4.53
2018-06-28T04:19:28.947Z,4.80
2018-06-28T04:21:57.317Z,5.20
2018-06-28T04:24:25.837Z,4.80
2018-06-28T04:26:54.186Z,5.50
2018-06-28T04:29:22.531Z,5.53
2018-06-28T04:31:50.910Z,5.87
2018-06-28T04:34:19.262Z,5.43
2018-06-28T04:36:47.644Z,5.30
2018-06-28T04:39:16.018Z,7.50
2018-06-28T04:41:44.410Z,5.63
2018-06-28T04:44:12.694Z,5.73
2018-06-28T04:46:41.043Z,7.07
2018-06-28T04:49:09.370Z,5.40
2018-06-28T04:51:37.670Z,5.80
2018-06-28T04:54:06.047Z,6.43
2018-06-28T04:56:34.397Z,5.47
2018-06-28T04:59:02.717Z,4.50
2018-06-28T05:01:31.126Z,5.10
2018-06-28T05:03:59.524Z,4.60
2018-06-28T05:06:27.914Z,4.73
2018-06-28T05:08:56.246Z,4.27
2018-06-28T05:11:24.581Z,5.00
2018-06-28T05:13:52.919Z,4.53
2018-06-28T05:16:21.231Z,5.03
2018-06-28T05:18:49.560Z,5.23
2018-06-28T05:21:17.882Z,5.23
2018-06-28T05:23:46.226Z,4.37
2018-06-28T05:26:14.663Z,5.03
2018-06-28T05:28:43.066Z,5.17
2018-06-28T05:31:11.411Z,4.80
2018-06-28T05:33:39.727Z,4.93
2018-06-28T05:36:08.020Z,4.87
2018-06-28T05:38:36.349Z,4.50
2018-06-28T05:41:04.687Z,4.90
2018-06-28T05:43:33.041Z,4.67
2018-06-28T05:46:01.335Z,4.80
2018-06-28T05:48:29.670Z,4.87
2018-06-28T05:50:58.069Z,4.77
2018-06-28T05:53:26.443Z,4.20
2018-06-28T05:55:54.790Z,4.13
2018-06-28T05:58:23.128Z,4.00
2018-06-28T06:00:51.559Z,4.00
2018-06-28T06:03:19.946Z,3.40
2018-06-28T06:05:48.310Z,3.90
2018-06-28T06:08:16.776Z,4.27
2018-06-28T06:10:45.115Z,3.50
2018-06-28T06:13:13.449Z,3.73
2018-06-28T06:15:41.913Z,3.60
2018-06-28T06:18:10.251Z,3.60
2018-06-28T06:20:38.697Z,3.40
2018-06-28T06:23:07.011Z,3.80
2018-06-28T06:25:35.357Z,3.90
2018-06-28T06:28:03.750Z,3.87
2018-06-28T06:30:32.098Z,3.70
2018-06-28T06:33:00.424Z,4.07
2018-06-28T06:35:28.790Z,3.40
2018-06-28T06:37:57.113Z,3.53
2018-06-28T06:40:25.598Z,3.47
2018-06-28T06:42:53.916Z,3.60
2018-06-28T06:45:22.245Z,3.87
2018-06-28T06:47:50.305Z,3.37
2018-06-28T06:50:18.620Z,3.40
2018-06-28T06:52:46.978Z,3.73
2018-06-28T06:55:15.358Z,3.40
2018-06-28T06:57:43.551Z,4.00
2018-06-28T07:00:11.917Z,3.97
2018-06-28T07:02:40.277Z,3.70
2018-06-28T07:05:08.653Z,3.33
2018-06-28T07:07:37.052Z,3.57
2018-06-28T07:10:05.484Z,4.03
2018-06-28T07:12:33.818Z,3.60
2018-06-28T07:15:02.173Z,3.53
2018-06-28T07:17:30.284Z,3.90
2018-06-28T07:19:58.619Z,3.60
2018-06-28T07:22:26.998Z,3.70
2018-06-28T07:24:55.372Z,4.03
2018-06-28T07:27:23.477Z,3.70
2018-06-28T07:29:51.818Z,3.37
2018-06-28T07:32:20.170Z,3.77
2018-06-28T07:34:48.571Z,3.80
2018-06-28T07:37:17.150Z,3.73
2018-06-28T07:39:45.526Z,3.63
2018-06-28T07:42:13.877Z,4.30
2018-06-28T07:44:42.246Z,3.80
2018-06-28T07:47:10.624Z,3.80
2018-06-28T07:49:39.058Z,4.20
2018-06-28T07:52:07.997Z,4.00
2018-06-28T07:54:36.380Z,3.97
2018-06-28T07:57:04.782Z,3.83
2018-06-28T07:59:33.185Z,3.90
2018-06-28T08:02:01.297Z,4.30
2018-06-28T08:04:29.772Z,3.97
2018-06-28T08:06:58.054Z,3.43
2018-06-28T08:09:26.478Z,3.80
2018-06-28T08:11:54.817Z,4.00
2018-06-28T08:14:23.224Z,3.77
2018-06-28T08:16:51.588Z,4.03
2018-06-28T08:19:19.936Z,4.43
2018-06-28T08:21:48.335Z,4.30
2018-06-28T08:24:16.686Z,4.50
2018-06-28T08:26:45.060Z,3.90
2018-06-28T08:29:13.913Z,4.40
2018-06-28T08:31:42.299Z,4.40
2018-06-28T08:34:10.637Z,4.27
2018-06-28T08:36:39.094Z,4.40
2018-06-28T08:39:08.319Z,4.07
2018-06-28T08:41:36.855Z,4.53
2018-06-28T08:44:05.647Z,4.10
2018-06-28T08:46:34.498Z,4.40
2018-06-28T08:49:03.012Z,4.67
2018-06-28T08:51:31.316Z,4.40
2018-06-28T08:53:59.669Z,4.07
2018-06-28T08:56:28.141Z,5.30
2018-06-28T08:58:56.515Z,5.20
2018-06-28T09:01:25.564Z,5.00
2018-06-28T09:03:53.937Z,5.30
2018-06-28T09:06:22.327Z,4.90
2018-06-28T09:08:50.771Z,4.73
2018-06-28T09:11:19.825Z,4.63
2018-06-28T09:13:48.717Z,6.00
2018-06-28T09:16:17.103Z,4.50
2018-06-28T09:18:45.461Z,4.47
2018-06-28T09:21:13.847Z,4.00
2018-06-28T09:23:42.249Z,4.30
2018-06-28T09:26:10.629Z,4.90
2018-06-28T09:28:39.031Z,4.00
2018-06-28T09:31:07.452Z,4.87
2018-06-28T09:33:35.849Z,4.37
2018-06-28T09:36:04.306Z,4.70
2018-06-28T09:38:32.708Z,3.90
2018-06-28T09:41:01.080Z,4.17
2018-06-28T09:43:29.442Z,4.43
2018-06-28T09:45:58.029Z,3.40
2018-06-28T09:48:26.427Z,3.93
2018-06-28T09:50:55.404Z,3.67
2018-06-28T09:53:23.905Z,3.80
2018-06-28T09:55:52.350Z,3.97
2018-06-28T09:58:20.876Z,4.20
2018-06-28T10:00:49.236Z,3.93
2018-06-28T10:03:17.658Z,4.13
2018-06-28T10:05:46.028Z,4.40
2018-06-28T10:08:14.404Z,4.37
2018-06-28T10:10:42.772Z,3.90
2018-06-28T10:13:11.178Z,4.50
2018-06-28T10:15:39.848Z,4.20
2018-06-28T10:18:08.355Z,4.20
2018-06-28T10:20:36.768Z,3.90
2018-06-28T10:23:05.193Z,3.90
2018-06-28T10:25:33.288Z,4.10
2018-06-28T10:28:01.661Z,4.07
2018-06-28T10:30:30.063Z,4.10
2018-06-28T10:32:58.529Z,4.10
2018-06-28T10:35:26.906Z,3.50
2018-06-28T10:37:56.089Z,4.23
2018-06-28T10:40:24.466Z,3.70
2018-06-28T10:42:52.832Z,4.43
2018-06-28T10:45:21.238Z,4.10
2018-06-28T10:47:49.669Z,3.77
2018-06-28T10:50:18.030Z,4.30
2018-06-28T10:52:46.399Z,4.23
2018-06-28T10:55:14.801Z,3.93
2018-06-28T10:57:43.195Z,3.90
2018-06-28T11:00:11.532Z,4.10
2018-06-28T11:02:41.013Z,4.00
2018-06-28T11:05:09.409Z,4.30
2018-06-28T11:07:38.839Z,4.40
2018-06-28T11:10:07.516Z,3.80
2018-06-28T11:12:35.925Z,4.27
2018-06-28T11:15:04.756Z,3.80
2018-06-28T11:17:33.113Z,5.73
2018-06-28T11:20:01.612Z,4.23
2018-06-28T11:22:30.033Z,4.63
2018-06-28T11:24:58.435Z,3.53
2018-06-28T11:27:26.879Z,4.33
2018-06-28T11:29:55.278Z,3.93
2018-06-28T11:32:23.667Z,3.77
2018-06-28T11:34:52.025Z,4.10
2018-06-28T11:37:20.472Z,4.10
2018-06-28T11:39:48.809Z,4.27
2018-06-28T11:42:17.193Z,4.20
2018-06-28T11:44:45.306Z,4.20
2018-06-28T11:47:13.661Z,3.97
2018-06-28T11:49:42.213Z,3.93
2018-06-28T11:52:10.628Z,3.43
2018-06-28T11:54:39.028Z,4.00
2018-06-28T11:57:08.416Z,3.83
2018-06-28T11:59:36.831Z,4.20
2018-06-28T12:02:05.146Z,3.83
2018-06-28T12:04:33.532Z,3.73
2018-06-28T12:07:02.015Z,4.33
2018-06-28T12:09:30.462Z,3.70
2018-06-28T12:11:58.901Z,4.20
2018-06-28T12:14:27.352Z,4.20
2018-06-28T12:16:55.448Z,4.10
2018-06-28T12:19:23.811Z,4.37
2018-06-28T12:21:52.217Z,4.37
2018-06-28T12:24:20.558Z,3.97
2018-06-28T12:26:48.940Z,3.80
2018-06-28T12:29:17.245Z,4.10
2018-06-28T12:31:45.608Z,4.40
2018-06-28T12:34:14.106Z,4.00
2018-06-28T12:36:43.347Z,4.00
2018-06-28T12:39:11.752Z,4.00
2018-06-28T12:41:40.160Z,4.10
2018-06-28T12:44:08.526Z,3.93
2018-06-28T12:47:48.464Z,4.03
2018-06-28T12:50:16.943Z,3.77
2018-06-28T12:52:47.600Z,5.20
2018-06-28T12:55:16.999Z,4.23
2018-06-28T12:57:45.721Z,4.20
2018-06-28T13:00:14.529Z,3.70
2018-06-28T13:02:43.220Z,3.80
2018-06-28T13:05:12.440Z,3.63
2018-06-28T13:07:40.872Z,4.30
2018-06-28T13:10:11.732Z,3.73
2018-06-28T13:12:40.393Z,3.90
2018-06-28T13:15:10.054Z,4.20
2018-06-28T13:17:38.305Z,4.20
2018-06-28T13:20:08.377Z,4.23
2018-06-28T13:22:37.915Z,4.13
2018-06-28T13:25:07.247Z,3.70
2018-06-28T13:27:35.440Z,3.40
2018-06-28T13:30:05.117Z,3.53
2018-06-28T13:32:34.513Z,3.47
2018-06-28T13:35:03.522Z,3.77
2018-06-28T13:37:31.958Z,3.93
2018-06-28T13:40:00.284Z,4.30
2018-06-28T13:42:28.679Z,4.10
2018-06-28T13:44:57.095Z,3.97
2018-06-28T13:47:25.583Z,3.60
2018-06-28T13:49:53.982Z,3.50
2018-06-28T13:52:22.388Z,3.90
2018-06-28T13:54:50.761Z,4.20
2018-06-28T13:57:19.067Z,3.63
2018-06-28T13:59:47.475Z,4.97
2018-06-28T14:02:15.816Z,3.77
2018-06-28T14:04:44.150Z,3.40
2018-06-28T14:07:12.516Z,3.90
2018-06-28T14:09:40.962Z,3.70
2018-06-28T14:12:09.343Z,3.50
2018-06-28T14:14:37.760Z,4.00
2018-06-28T14:17:06.154Z,3.60
2018-06-28T14:19:34.565Z,3.50
2018-06-28T14:22:03.061Z,3.77
2018-06-28T14:24:32.348Z,4.50
2018-06-28T14:27:02.934Z,4.37
2018-06-28T14:29:33.002Z,3.50
2018-06-28T14:32:01.469Z,4.00
2018-06-28T14:34:29.874Z,4.00
2018-06-28T14:36:58.257Z,4.03
2018-06-28T14:39:26.752Z,3.93
2018-06-28T14:41:55.234Z,3.90
2018-06-28T14:44:23.649Z,3.50
2018-06-28T14:46:52.074Z,3.53
2018-06-28T14:49:20.518Z,3.70
2018-06-28T14:51:48.921Z,4.50
2018-06-28T14:54:17.316Z,4.63
2018-06-28T14:56:45.910Z,3.47
2018-06-28T14:59:14.316Z,3.17
2018-06-28T15:01:42.737Z,3.60
2018-06-28T15:04:10.910Z,3.10
2018-06-28T15:06:39.286Z,3.77
2018-06-28T15:09:08.987Z,3.03
2018-06-28T15:11:37.408Z,3.40
2018-06-28T15:14:06.117Z,4.57
2018-06-28T15:16:34.520Z,4.10
2018-06-28T15:19:02.894Z,3.53
2018-06-28T15:21:31.535Z,3.63
2018-06-28T15:24:00.178Z,3.60
2018-06-28T15:26:28.305Z,3.60
2018-06-28T15:28:57.336Z,4.20
2018-06-28T15:31:26.873Z,3.57
2018-06-28T15:33:55.467Z,3.50
2018-06-28T15:36:23.876Z,3.47
2018-06-28T15:38:52.335Z,3.20
2018-06-28T15:41:21.092Z,3.57
2018-06-28T15:43:49.516Z,3.27
2018-06-28T15:46:17.933Z,3.40
2018-06-28T15:48:46.459Z,3.77
2018-06-28T15:51:14.851Z,3.40
2018-06-28T15:53:43.337Z,3.50
2018-06-28T15:56:11.748Z,4.00
2018-06-28T15:58:40.679Z,3.03
2018-06-28T16:01:09.043Z,3.27
2018-06-28T16:03:37.432Z,3.27
2018-06-28T16:06:06.875Z,3.50
2018-06-28T16:11:13.319Z,3.33
2018-06-28T16:13:41.841Z,3.80
2018-06-28T16:16:10.269Z,3.77
2018-06-28T16:18:38.457Z,3.27
2018-06-28T16:21:07.414Z,3.70
2018-06-28T16:23:35.917Z,3.20
2018-06-28T16:26:04.286Z,3.97
2018-06-28T16:28:32.882Z,3.40
2018-06-28T16:31:01.407Z,3.40
2018-06-28T16:33:29.792Z,3.77
2018-06-28T16:35:58.232Z,3.40
2018-06-28T16:38:26.622Z,3.60
2018-06-28T16:40:55.065Z,3.40
2018-06-28T16:43:23.173Z,3.70
2018-06-28T16:45:51.620Z,3.93
2018-06-28T16:48:20.004Z,3.67
2018-06-28T16:50:48.565Z,3.90
2018-06-28T16:53:16.965Z,3.77
2018-06-28T16:55:45.444Z,3.90
2018-06-28T16:58:13.872Z,3.53
2018-06-28T17:00:42.559Z,3.90
2018-06-28T17:03:13.928Z,3.70
2018-06-28T17:05:42.634Z,3.90
2018-06-28T17:08:11.802Z,3.37
2018-06-28T17:10:40.254Z,3.90
2018-06-28T17:13:09.364Z,4.03
2018-06-28T17:15:38.236Z,3.50
2018-06-28T17:18:06.673Z,3.63
2018-06-28T17:20:35.195Z,3.90
2018-06-28T17:23:03.664Z,3.53
2018-06-28T17:25:32.146Z,3.40
2018-06-28T17:28:00.606Z,4.00
2018-06-28T17:30:29.164Z,3.33
2018-06-28T17:32:57.631Z,3.77
2018-06-28T17:35:26.587Z,3.53
2018-06-28T17:37:55.022Z,3.77
2018-06-28T17:40:23.446Z,3.57
2018-06-28T17:42:51.883Z,3.97
2018-06-28T17:45:20.220Z,3.77
2018-06-28T17:47:49.193Z,4.40
2018-06-28T17:50:17.595Z,4.37
2018-06-28T17:52:45.933Z,4.07
2018-06-28T17:55:14.403Z,3.60
2018-06-28T17:57:43.207Z,3.80
2018-06-28T18:00:11.745Z,4.10
2018-06-28T18:02:40.771Z,3.87
2018-06-28T18:05:09.276Z,3.80
2018-06-28T18:07:37.713Z,3.93
2018-06-28T18:10:06.237Z,4.57
2018-06-28T18:12:34.332Z,4.27
2018-06-28T18:15:02.870Z,3.70
2018-06-28T18:17:31.264Z,3.97
2018-06-28T18:19:59.679Z,4.37
2018-06-28T18:22:28.069Z,4.23
2018-06-28T18:24:56.465Z,3.90
2018-06-28T18:27:25.011Z,3.97
2018-06-28T18:29:53.473Z,4.63
2018-06-28T18:32:21.882Z,4.20
2018-06-28T18:34:50.256Z,4.00
2018-06-28T18:37:18.639Z,4.17
2018-06-28T18:39:47.005Z,4.60
2018-06-28T18:42:15.354Z,5.20
2018-06-28T18:44:44.021Z,4.70
2018-06-28T18:47:12.455Z,4.17
2018-06-28T18:49:40.867Z,3.70
2018-06-28T18:52:09.282Z,3.77
2018-06-28T18:54:37.655Z,3.80
2018-06-28T18:57:06.042Z,4.50
2018-06-28T18:59:34.425Z,4.00
2018-06-28T19:02:02.951Z,3.80
2018-06-28T19:04:31.338Z,4.37
2018-06-28T19:06:59.686Z,4.50
2018-06-28T19:09:33.438Z,4.53
2018-06-28T19:12:01.908Z,4.50
2018-06-28T19:14:35.601Z,4.47
2018-06-28T19:17:04.021Z,4.63
2018-06-28T19:19:32.381Z,4.70
2018-06-28T19:22:06.198Z,4.50
2018-06-28T19:24:34.333Z,5.00
2018-06-28T19:27:02.695Z,4.47
2018-06-28T19:29:36.331Z,4.43
2018-06-28T19:32:10.087Z,5.13
2018-06-28T19:34:38.520Z,4.70
2018-06-28T19:37:06.935Z,4.27
2018-06-28T19:39:41.050Z,4.47
2018-06-28T19:42:14.722Z,3.87
2018-06-28T19:44:42.823Z,4.57
2018-06-28T19:47:11.257Z,4.40
2018-06-28T19:49:44.857Z,3.97
2018-06-28T19:52:18.561Z,4.90
2018-06-28T19:54:46.979Z,4.90
2018-06-28T19:57:15.536Z,5.00
2018-06-28T19:59:46.989Z,4.50
2018-06-28T20:02:21.582Z,5.20
2018-06-28T20:04:49.968Z,5.40
2018-06-28T20:07:18.362Z,5.23
2018-06-28T20:09:46.766Z,5.40
2018-06-28T20:12:20.545Z,4.90
2018-06-28T20:14:54.112Z,4.67
2018-06-28T20:17:27.819Z,4.53
2018-06-28T20:20:01.409Z,4.50
2018-06-28T20:22:29.821Z,4.87
2018-06-28T20:24:58.209Z,4.90
2018-06-28T20:27:31.873Z,5.23
2018-06-28T20:30:05.722Z,4.70
2018-06-28T20:32:39.558Z,4.90
2018-06-28T20:35:07.954Z,4.80
2018-06-28T20:37:36.411Z,4.97
2018-06-28T20:40:04.539Z,4.67
2018-06-28T20:42:32.981Z,4.43
2018-06-28T20:45:01.523Z,5.07
2018-06-28T20:47:29.946Z,4.73
2018-06-28T20:49:58.372Z,4.37
2018-06-28T20:52:26.773Z,4.30
2018-06-28T20:54:55.197Z,4.90
2018-06-28T20:57:23.575Z,4.83
2018-06-28T20:59:51.957Z,5.10
2018-06-28T21:02:20.378Z,4.63
2018-06-28T21:04:48.805Z,4.70
2018-06-28T21:07:17.243Z,4.30
2018-06-28T21:09:45.614Z,3.97
2018-06-28T21:12:13.973Z,4.30
2018-06-28T21:14:42.369Z,4.60
2018-06-28T21:17:10.724Z,4.80
2018-06-28T21:19:39.104Z,5.00
2018-06-28T21:22:07.487Z,4.83
2018-06-28T21:24:35.911Z,4.77
2018-06-28T21:27:04.378Z,4.10
2018-06-28T21:29:32.729Z,4.30
2018-06-28T21:32:01.093Z,4.80
2018-06-28T21:34:29.722Z,4.33
2018-06-28T21:36:58.108Z,4.67
2018-06-28T21:39:26.470Z,5.20
2018-06-28T21:41:54.801Z,4.30
2018-06-28T21:44:23.132Z,5.03
2018-06-28T21:46:51.541Z,5.00
2018-06-28T21:49:19.892Z,5.07
2018-06-28T21:51:48.333Z,4.60
2018-06-28T21:54:16.757Z,4.60
2018-06-28T21:56:45.153Z,5.40
2018-06-28T21:59:13.487Z,5.00
2018-06-28T22:01:54.905Z,4.90
2018-06-28T22:04:23.300Z,4.53
2018-06-28T22:06:51.745Z,4.60
2018-06-28T22:09:20.550Z,4.57
2018-06-28T22:11:49.135Z,4.87
2018-06-28T22:14:17.993Z,4.23
2018-06-28T22:16:46.265Z,4.73
2018-06-28T22:19:14.651Z,5.00
2018-06-28T22:21:42.974Z,5.10
2018-06-28T22:24:11.295Z,4.10
2018-06-28T22:26:39.778Z,4.90
2018-06-28T22:29:08.161Z,5.00
2018-06-28T22:31:36.518Z,4.90
2018-06-28T22:34:04.910Z,5.13
2018-06-28T22:36:33.278Z,4.90
2018-06-28T22:39:01.753Z,4.53
2018-06-28T22:41:30.156Z,4.30
2018-06-28T22:43:58.516Z,4.83
2018-06-28T22:46:26.909Z,4.50
2018-06-28T22:48:55.272Z,4.97
2018-06-28T22:51:23.685Z,4.23
2018-06-28T22:53:52.010Z,4.47
2018-06-28T22:56:20.422Z,4.43
2018-06-28T22:58:48.802Z,4.57
2018-06-28T23:01:17.124Z,5.07
2018-06-28T23:03:45.501Z,4.60
2018-06-28T23:06:13.958Z,4.67
2018-06-28T23:08:42.360Z,4.50
2018-06-28T23:11:10.721Z,5.10
2018-06-28T23:13:39.101Z,4.80
2018-06-28T23:16:07.877Z,4.63
2018-06-28T23:18:36.276Z,5.00
2018-06-28T23:21:04.928Z,4.60
2018-06-28T23:23:33.320Z,5.43
2018-06-28T23:26:01.710Z,5.33
2018-06-28T23:28:30.161Z,4.93
2018-06-28T23:30:58.527Z,4.73
2018-06-28T23:33:26.864Z,4.80
2018-06-28T23:35:55.226Z,4.93
2018-06-28T23:38:23.625Z,5.07
2018-06-28T23:40:52.046Z,4.30
2018-06-28T23:43:20.352Z,4.87
2018-06-28T23:45:48.732Z,4.57
2018-06-28T23:48:17.116Z,4.80
2018-06-28T23:50:45.434Z,4.27
2018-06-28T23:53:13.804Z,5.00
2018-06-28T23:55:42.117Z,4.50
2018-06-28T23:58:10.461Z,4.80
